createdAt,value
2023-03-30T00:00:00.352Z,7.53
2023-03-30T00:02:31.172Z,7.13
2023-03-30T00:05:02.430Z,7.20
2023-03-30T00:07:32.037Z,6.73
2023-03-30T00:10:02.111Z,6.70
2023-03-30T00:12:28.211Z,6.47
2023-03-30T00:14:54.756Z,6.67
2023-03-30T00:17:20.948Z,6.87
2023-03-30T00:19:47.769Z,6.73
2023-03-30T00:22:13.928Z,5.87
2023-03-30T00:24:40.341Z,6.97
2023-03-30T00:27:06.406Z,6.23
2023-03-30T00:29:32.981Z,7.37
2023-03-30T00:31:59.115Z,6.67
2023-03-30T00:34:25.671Z,7.10
2023-03-30T00:36:52.621Z,7.27
2023-03-30T00:39:22.114Z,7.07
2023-03-30T00:41:48.633Z,6.57
2023-03-30T00:44:52.708Z,6.40
2023-03-30T00:47:19.221Z,6.67
2023-03-30T00:49:45.848Z,6.67
2023-03-30T00:52:12.183Z,7.13
2023-03-30T00:54:39.299Z,7.47
2023-03-30T00:57:06.827Z,6.67
2023-03-30T00:59:33.928Z,7.63
2023-03-30T01:02:00.677Z,7.83
2023-03-30T01:04:27.711Z,7.43
2023-03-30T01:06:54.584Z,9.57
2023-03-30T01:09:21.934Z,7.97
2023-03-30T01:11:48.321Z,8.50
2023-03-30T01:14:16.621Z,8.87
2023-03-30T01:17:36.748Z,7.90
2023-03-30T01:20:12.321Z,7.57
2023-03-30T01:23:03.486Z,7.93
2023-03-30T01:25:58.641Z,7.43
2023-03-30T01:28:52.450Z,8.30
2023-03-30T01:31:47.642Z,8.80
2023-03-30T01:34:26.298Z,8.27
2023-03-30T01:37:14.512Z,9.07
2023-03-30T01:40:12.922Z,9.17
2023-03-30T01:43:03.888Z,8.83
2023-03-30T01:45:48.029Z,8.63
2023-03-30T01:48:37.611Z,9.47
2023-03-30T01:51:09.996Z,8.07
2023-03-30T01:53:51.184Z,8.97
2023-03-30T01:56:36.317Z,9.17
2023-03-30T01:59:09.482Z,8.20
2023-03-30T02:01:38.617Z,7.70
2023-03-30T02:04:07.821Z,8.50
2023-03-30T02:06:40.001Z,7.67
2023-03-30T02:09:10.928Z,7.23
2023-03-30T02:11:40.574Z,7.47
2023-03-30T02:14:09.510Z,7.67
2023-03-30T02:16:51.110Z,7.47
2023-03-30T02:19:18.690Z,7.03
2023-03-30T02:21:46.232Z,8.07
2023-03-30T02:24:19.840Z,7.20
2023-03-30T02:26:50.842Z,7.70
2023-03-30T02:29:19.367Z,7.67
2023-03-30T02:31:48.730Z,7.73
2023-03-30T02:34:27.934Z,7.60
2023-03-30T02:37:28.260Z,8.10
2023-03-30T02:40:26.791Z,8.10
2023-03-30T02:42:53.065Z,9.57
2023-03-30T02:45:38.537Z,7.43
2023-03-30T02:48:20.908Z,8.23
2023-03-30T02:51:08.689Z,12.07
2023-03-30T02:54:37.774Z,11.77
2023-03-30T02:57:32.211Z,8.33
2023-03-30T03:00:26.042Z,9.00
2023-03-30T03:02:56.781Z,8.60
2023-03-30T03:05:27.993Z,7.67
2023-03-30T03:08:06.041Z,8.20
2023-03-30T03:10:35.548Z,8.40
2023-03-30T03:13:02.414Z,8.57
2023-03-30T03:15:29.585Z,8.33
2023-03-30T03:18:05.485Z,7.53
2023-03-30T03:20:31.663Z,8.50
2023-03-30T03:23:00.671Z,8.17
2023-03-30T03:25:28.898Z,8.03
2023-03-30T03:28:02.447Z,7.67
2023-03-30T03:30:49.872Z,8.60
2023-03-30T03:33:19.753Z,6.97
2023-03-30T03:35:54.704Z,8.23
2023-03-30T03:38:23.582Z,7.77
2023-03-30T03:40:52.556Z,8.37
2023-03-30T03:43:19.289Z,8.53
2023-03-30T03:45:46.777Z,8.53
2023-03-30T03:48:18.377Z,8.60
2023-03-30T03:50:55.880Z,7.80
2023-03-30T03:53:24.473Z,8.13
2023-03-30T03:55:54.863Z,8.53
2023-03-30T03:58:22.089Z,6.87
2023-03-30T04:00:48.914Z,7.90
2023-03-30T04:03:16.220Z,8.07
2023-03-30T04:05:42.631Z,7.93
2023-03-30T04:08:09.949Z,8.07
2023-03-30T04:10:38.242Z,8.43
2023-03-30T04:13:23.198Z,7.70
2023-03-30T04:15:55.336Z,8.13
2023-03-30T04:18:40.993Z,8.10
2023-03-30T04:21:22.946Z,8.40
2023-03-30T04:24:11.392Z,8.23
2023-03-30T04:26:40.986Z,7.80
2023-03-30T04:29:29.000Z,8.37
2023-03-30T04:32:19.979Z,8.63
2023-03-30T04:34:54.073Z,7.77
2023-03-30T04:37:31.715Z,8.80
2023-03-30T04:40:17.060Z,8.43
2023-03-30T04:43:03.063Z,7.73
2023-03-30T04:45:50.699Z,8.30
2023-03-30T04:48:25.741Z,8.57
2023-03-30T04:50:55.163Z,8.50
2023-03-30T04:53:41.559Z,8.20
2023-03-30T04:56:17.242Z,8.63
2023-03-30T04:59:03.762Z,7.67
2023-03-30T05:01:53.316Z,8.50
2023-03-30T05:04:38.867Z,8.70
2023-03-30T05:07:23.997Z,7.70
2023-03-30T05:10:10.833Z,8.33
2023-03-30T05:13:03.453Z,8.53
2023-03-30T05:15:39.251Z,9.03
2023-03-30T05:18:32.030Z,8.17
2023-03-30T05:21:21.432Z,8.13
2023-03-30T05:23:47.819Z,8.53
2023-03-30T05:26:16.929Z,8.30
2023-03-30T05:28:47.109Z,7.87
2023-03-30T05:31:20.933Z,7.83
2023-03-30T05:34:07.308Z,7.40
2023-03-30T05:36:52.472Z,7.67
2023-03-30T05:39:48.587Z,9.03
2023-03-30T05:42:40.712Z,7.83
2023-03-30T05:45:29.886Z,7.97
2023-03-30T05:48:22.698Z,8.67
2023-03-30T05:51:18.664Z,8.87
2023-03-30T05:53:59.012Z,8.23
2023-03-30T05:56:55.143Z,8.47
2023-03-30T05:59:44.949Z,7.77
2023-03-30T06:02:22.377Z,8.20
2023-03-30T06:04:50.125Z,8.57
2023-03-30T06:07:17.570Z,7.50
2023-03-30T06:09:43.980Z,7.63
2023-03-30T06:12:20.526Z,7.27
2023-03-30T06:14:46.755Z,8.07
2023-03-30T06:17:33.535Z,8.10
2023-03-30T06:20:00.463Z,7.83
2023-03-30T06:22:29.314Z,7.43
2023-03-30T06:25:03.082Z,7.73
2023-03-30T06:27:32.674Z,7.63
2023-03-30T06:29:59.045Z,8.00
2023-03-30T06:32:26.386Z,8.00
2023-03-30T06:34:52.732Z,7.97
2023-03-30T06:37:21.466Z,7.70
2023-03-30T06:39:48.662Z,7.33
2023-03-30T06:42:15.164Z,8.03
2023-03-30T06:45:02.818Z,7.57
2023-03-30T06:47:30.768Z,7.03
2023-03-30T06:49:58.808Z,6.57
2023-03-30T06:52:40.458Z,7.30
2023-03-30T06:55:07.340Z,6.87
2023-03-30T06:57:33.918Z,6.93
2023-03-30T07:00:06.301Z,7.20
2023-03-30T07:02:35.286Z,6.83
2023-03-30T07:05:24.007Z,7.67
2023-03-30T07:08:08.788Z,7.53
2023-03-30T07:10:38.972Z,7.03
2023-03-30T07:13:08.210Z,7.23
2023-03-30T07:15:36.779Z,6.87
2023-03-30T07:18:03.986Z,6.60
2023-03-30T07:20:30.898Z,7.37
2023-03-30T07:23:18.760Z,7.30
2023-03-30T07:25:46.990Z,7.43
2023-03-30T07:28:17.129Z,7.87
2023-03-30T07:30:45.376Z,7.87
2023-03-30T07:33:13.994Z,7.37
2023-03-30T07:35:46.395Z,7.83
2023-03-30T07:38:15.573Z,7.57
2023-03-30T07:40:48.562Z,7.10
2023-03-30T07:43:15.600Z,8.50
2023-03-30T07:45:43.807Z,7.50
2023-03-30T07:48:14.333Z,7.43
2023-03-30T07:50:41.086Z,7.17
2023-03-30T07:53:07.476Z,8.70
2023-03-30T07:55:34.380Z,7.60
2023-03-30T07:58:08.241Z,8.00
2023-03-30T08:00:35.002Z,7.03
2023-03-30T08:03:24.923Z,7.67
2023-03-30T08:05:53.366Z,7.27
2023-03-30T08:08:21.726Z,7.80
2023-03-30T08:10:48.592Z,7.70
2023-03-30T08:13:14.957Z,7.50
2023-03-30T08:15:42.989Z,6.93
2023-03-30T08:18:12.188Z,7.80
2023-03-30T08:20:40.887Z,7.93
2023-03-30T08:23:09.008Z,7.80
2023-03-30T08:25:36.435Z,7.47
2023-03-30T08:28:04.945Z,7.67
2023-03-30T08:30:34.148Z,7.40
2023-03-30T08:33:00.643Z,7.17
2023-03-30T08:35:27.360Z,7.53
2023-03-30T08:37:54.727Z,7.53
2023-03-30T08:40:22.354Z,6.50
2023-03-30T08:43:20.273Z,7.20
2023-03-30T08:45:47.245Z,6.30
2023-03-30T08:48:22.787Z,6.80
2023-03-30T08:51:12.007Z,7.10
2023-03-30T08:53:38.609Z,7.10
2023-03-30T08:56:15.041Z,6.47
2023-03-30T08:59:03.393Z,6.87
2023-03-30T09:01:51.358Z,7.13
2023-03-30T09:04:20.816Z,13.07
2023-03-30T09:06:46.839Z,17.40
2023-03-30T09:09:18.050Z,9.27
2023-03-30T09:11:49.198Z,26.17
2023-03-30T09:14:45.060Z,17.13
2023-03-30T09:17:20.745Z,37.83
2023-03-30T09:20:01.450Z,20.57
2023-03-30T09:22:37.225Z,18.13
2023-03-30T09:25:18.621Z,13.03
2023-03-30T09:27:57.600Z,10.40
2023-03-30T09:30:37.933Z,9.53
2023-03-30T09:33:13.543Z,35.67
2023-03-30T09:35:43.379Z,91.60
2023-03-30T09:38:12.785Z,53.27
2023-03-30T09:40:42.446Z,11.07
2023-03-30T09:43:24.735Z,8.37
2023-03-30T09:45:51.736Z,6.90
2023-03-30T09:48:17.972Z,9.17
2023-03-30T09:50:45.874Z,7.30
2023-03-30T09:53:25.931Z,6.27
2023-03-30T09:56:01.733Z,7.20
2023-03-30T09:58:34.539Z,7.60
2023-03-30T10:01:06.891Z,8.43
2023-03-30T10:03:34.485Z,8.03
2023-03-30T10:06:07.600Z,9.30
2023-03-30T10:08:41.946Z,8.33
2023-03-30T10:11:09.078Z,9.23
2023-03-30T10:13:42.381Z,7.30
2023-03-30T10:16:25.766Z,6.97
2023-03-30T10:18:55.016Z,8.20
2023-03-30T10:21:26.668Z,7.03
2023-03-30T10:24:01.884Z,6.40
2023-03-30T10:26:30.203Z,6.33
2023-03-30T10:29:02.817Z,6.93
2023-03-30T10:31:30.776Z,5.93
2023-03-30T10:33:59.912Z,6.17
2023-03-30T10:36:37.810Z,6.90
2023-03-30T10:39:27.000Z,6.93
2023-03-30T10:41:55.877Z,6.20
2023-03-30T10:44:40.967Z,11.90
2023-03-30T10:47:19.918Z,10.90
2023-03-30T10:49:58.230Z,9.30
2023-03-30T10:52:33.967Z,11.67
2023-03-30T10:55:27.569Z,10.63
2023-03-30T10:58:11.295Z,8.77
2023-03-30T11:00:51.725Z,8.03
2023-03-30T11:03:26.555Z,9.80
2023-03-30T11:05:58.141Z,13.17
2023-03-30T11:08:30.908Z,11.67
2023-03-30T11:10:59.398Z,20.87
2023-03-30T11:13:36.771Z,22.97
2023-03-30T11:16:07.056Z,16.67
2023-03-30T11:18:47.839Z,14.70
2023-03-30T11:21:24.179Z,13.30
2023-03-30T11:23:56.862Z,13.53
2023-03-30T11:26:33.802Z,11.10
2023-03-30T11:29:23.654Z,42.77
2023-03-30T11:32:11.131Z,14.93
2023-03-30T11:34:56.624Z,17.03
2023-03-30T11:37:31.159Z,12.73
2023-03-30T11:40:27.041Z,14.27
2023-03-30T11:42:54.137Z,14.77
2023-03-30T11:45:39.422Z,9.77
2023-03-30T11:48:15.027Z,8.77
2023-03-30T11:50:56.424Z,8.43
2023-03-30T11:53:58.597Z,7.00
2023-03-30T11:56:34.294Z,9.03
2023-03-30T11:59:00.289Z,8.87
2023-03-30T12:01:39.101Z,7.67
2023-03-30T12:04:10.813Z,7.87
2023-03-30T12:06:49.610Z,7.40
2023-03-30T12:09:35.423Z,7.70
2023-03-30T12:12:17.916Z,7.47
2023-03-30T12:14:58.009Z,7.20
2023-03-30T12:17:48.512Z,7.80
2023-03-30T12:20:20.840Z,9.67
2023-03-30T12:23:00.606Z,7.50
2023-03-30T12:25:32.176Z,9.90
2023-03-30T12:28:13.196Z,11.80
2023-03-30T12:30:56.821Z,7.97
2023-03-30T12:33:48.263Z,8.10
2023-03-30T12:36:40.712Z,6.80
2023-03-30T12:39:17.325Z,9.93
2023-03-30T12:41:49.545Z,8.87
2023-03-30T12:44:35.687Z,6.77
2023-03-30T12:47:32.865Z,6.30
2023-03-30T12:50:26.974Z,5.87
2023-03-30T12:52:53.212Z,6.47
2023-03-30T12:55:38.720Z,6.40
2023-03-30T12:58:26.167Z,6.00
2023-03-30T13:01:11.644Z,5.97
2023-03-30T13:03:49.078Z,6.70
2023-03-30T13:06:33.479Z,6.13
2023-03-30T13:09:12.172Z,6.20
2023-03-30T13:11:44.677Z,7.17
2023-03-30T13:14:25.830Z,6.00
2023-03-30T13:16:52.662Z,5.43
2023-03-30T13:19:43.684Z,5.80
2023-03-30T13:22:10.467Z,6.37
2023-03-30T13:24:51.360Z,6.10
2023-03-30T13:27:17.763Z,5.80
2023-03-30T13:29:59.338Z,5.70
2023-03-30T13:32:37.885Z,5.57
2023-03-30T13:35:31.443Z,6.43
2023-03-30T13:38:32.038Z,6.70
2023-03-30T13:41:34.029Z,5.23
2023-03-30T13:44:26.826Z,4.47
2023-03-30T13:47:22.169Z,4.30
2023-03-30T13:49:59.551Z,3.97
2023-03-30T13:52:48.088Z,4.13
2023-03-30T13:55:37.901Z,4.43
2023-03-30T13:58:12.659Z,4.20
2023-03-30T14:00:53.268Z,3.87
2023-03-30T14:03:38.391Z,4.07
2023-03-30T14:06:15.415Z,4.67
2023-03-30T14:08:45.572Z,4.37
2023-03-30T14:11:19.644Z,4.97
2023-03-30T14:13:49.141Z,5.03
2023-03-30T14:16:22.609Z,4.63
2023-03-30T14:18:49.956Z,4.10
2023-03-30T14:21:21.282Z,4.40
2023-03-30T14:23:50.715Z,4.43
2023-03-30T14:26:23.424Z,4.40
2023-03-30T14:28:56.894Z,4.17
2023-03-30T14:31:26.523Z,3.70
2023-03-30T14:33:53.092Z,4.40
2023-03-30T14:36:21.332Z,4.07
2023-03-30T14:38:50.948Z,4.37
2023-03-30T14:41:23.892Z,4.40
2023-03-30T14:44:06.095Z,3.77
2023-03-30T14:46:46.044Z,4.57
2023-03-30T14:49:23.706Z,4.23
2023-03-30T14:51:52.305Z,4.70
2023-03-30T14:54:22.692Z,5.20
2023-03-30T14:57:01.248Z,5.47
2023-03-30T14:59:30.144Z,5.60
2023-03-30T15:01:57.260Z,5.77
2023-03-30T15:04:28.426Z,6.17
2023-03-30T15:06:55.092Z,5.57
2023-03-30T15:09:23.630Z,5.50
2023-03-30T15:11:55.747Z,5.67
2023-03-30T15:14:22.762Z,5.20
2023-03-30T15:16:55.242Z,5.10
2023-03-30T15:19:33.103Z,5.10
2023-03-30T15:22:04.035Z,5.30
2023-03-30T15:24:36.673Z,5.33
2023-03-30T15:27:06.205Z,5.33
2023-03-30T15:29:33.007Z,5.57
2023-03-30T15:32:23.153Z,5.60
2023-03-30T15:35:23.141Z,4.50
2023-03-30T15:37:54.202Z,4.57
2023-03-30T15:40:36.522Z,4.70
2023-03-30T15:43:21.107Z,5.00
2023-03-30T15:46:01.355Z,4.30
2023-03-30T15:48:42.871Z,4.93
2023-03-30T15:51:28.393Z,4.77
2023-03-30T15:54:00.791Z,4.77
2023-03-30T15:56:33.645Z,5.33
2023-03-30T15:59:00.915Z,6.20
2023-03-30T16:01:41.545Z,5.90
2023-03-30T16:04:13.188Z,5.83
2023-03-30T16:06:42.746Z,5.73
2023-03-30T16:09:10.702Z,6.30
2023-03-30T16:11:37.705Z,5.97
2023-03-30T16:14:06.580Z,6.43
2023-03-30T16:16:33.814Z,6.00
2023-03-30T16:19:00.649Z,6.97
2023-03-30T16:21:26.910Z,6.03
2023-03-30T16:23:53.501Z,5.87
2023-03-30T16:26:19.981Z,5.90
2023-03-30T16:28:50.570Z,6.20
2023-03-30T16:31:21.108Z,7.07
2023-03-30T16:33:48.349Z,8.80
2023-03-30T16:36:20.241Z,9.20
2023-03-30T16:38:47.382Z,8.20
2023-03-30T16:41:22.278Z,7.50
2023-03-30T16:43:48.813Z,7.00
2023-03-30T16:46:18.091Z,8.13
2023-03-30T16:48:45.886Z,8.13
2023-03-30T16:51:14.322Z,9.27
2023-03-30T16:53:41.438Z,9.20
2023-03-30T16:56:16.840Z,9.80
2023-03-30T16:58:44.278Z,9.50
2023-03-30T17:01:12.543Z,10.53
2023-03-30T17:03:39.746Z,9.90
2023-03-30T17:06:06.735Z,10.47
2023-03-30T17:08:33.478Z,10.00
2023-03-30T17:11:02.773Z,9.70
2023-03-30T17:13:31.229Z,9.60
2023-03-30T17:16:00.202Z,9.40
2023-03-30T17:18:27.348Z,8.03
2023-03-30T17:20:59.569Z,8.70
2023-03-30T17:23:28.639Z,9.80
2023-03-30T17:25:57.462Z,9.90
2023-03-30T17:28:25.548Z,10.37
2023-03-30T17:30:54.067Z,11.50
2023-03-30T17:33:21.278Z,11.33
2023-03-30T17:35:50.705Z,12.60
2023-03-30T17:38:17.373Z,12.20
2023-03-30T17:40:45.317Z,12.70
2023-03-30T17:43:11.950Z,11.83
2023-03-30T17:45:38.868Z,26.87
2023-03-30T17:48:12.841Z,53.47
2023-03-30T17:50:45.436Z,22.10
2023-03-30T17:53:16.640Z,13.33
2023-03-30T17:55:48.615Z,12.00
2023-03-30T17:58:35.405Z,13.17
2023-03-30T18:01:05.466Z,8.17
2023-03-30T18:03:32.835Z,5.33
2023-03-30T18:06:00.682Z,3.97
2023-03-30T18:08:28.179Z,2.80
2023-03-30T18:10:59.644Z,1.40
2023-03-30T18:13:27.817Z,1.27
2023-03-30T18:15:56.114Z,0.97
2023-03-30T18:18:25.531Z,1.67
2023-03-30T18:20:58.293Z,1.83
2023-03-30T18:23:25.174Z,1.90
2023-03-30T18:25:51.979Z,1.97
2023-03-30T18:28:21.326Z,2.20
2023-03-30T18:30:48.575Z,2.30
2023-03-30T18:33:18.276Z,2.10
2023-03-30T18:35:47.568Z,3.43
2023-03-30T18:38:16.950Z,3.80
2023-03-30T18:40:46.219Z,2.77
2023-03-30T18:43:13.778Z,2.73
2023-03-30T18:45:46.680Z,2.63
2023-03-30T18:48:16.998Z,1.70
2023-03-30T18:50:46.016Z,1.40
2023-03-30T18:53:16.781Z,1.17
2023-03-30T18:55:48.084Z,1.00
2023-03-30T18:58:28.467Z,0.90
2023-03-30T19:00:57.337Z,0.90
2023-03-30T19:03:27.569Z,1.20
2023-03-30T19:05:54.823Z,1.00
2023-03-30T19:08:24.664Z,0.90
2023-03-30T19:10:54.583Z,1.00
2023-03-30T19:13:23.632Z,1.30
2023-03-30T19:15:51.404Z,1.40
2023-03-30T19:18:19.291Z,1.10
2023-03-30T19:20:48.818Z,1.47
2023-03-30T19:23:17.392Z,1.40
2023-03-30T19:25:44.641Z,1.13
2023-03-30T19:28:15.360Z,1.87
2023-03-30T19:30:42.364Z,3.77
2023-03-30T19:33:11.875Z,4.67
2023-03-30T19:35:40.231Z,6.10
2023-03-30T19:38:07.815Z,4.20
2023-03-30T19:40:37.036Z,5.03
2023-03-30T19:43:04.127Z,4.47
2023-03-30T19:45:31.149Z,3.63
2023-03-30T19:47:58.127Z,3.63
2023-03-30T19:50:24.747Z,4.63
2023-03-30T19:52:51.502Z,5.30
2023-03-30T19:55:18.774Z,4.87
2023-03-30T19:57:46.510Z,4.47
2023-03-30T20:00:16.019Z,5.40
2023-03-30T20:02:45.949Z,5.50
2023-03-30T20:05:13.074Z,6.23
2023-03-30T20:07:41.024Z,5.50
2023-03-30T20:10:10.134Z,6.43
2023-03-30T20:12:37.699Z,6.33
2023-03-30T20:15:05.740Z,6.80
2023-03-30T20:17:33.304Z,6.20
2023-03-30T20:20:05.940Z,5.77
2023-03-30T20:22:33.895Z,6.13
2023-03-30T20:25:00.179Z,6.17
2023-03-30T20:27:26.736Z,5.37
2023-03-30T20:29:53.150Z,5.03
2023-03-30T20:32:21.240Z,4.97
2023-03-30T20:34:48.565Z,4.37
2023-03-30T20:37:15.137Z,4.60
2023-03-30T20:39:41.285Z,3.63
2023-03-30T20:42:08.810Z,3.70
2023-03-30T20:44:37.256Z,3.63
2023-03-30T20:47:04.673Z,3.67
2023-03-30T20:49:34.179Z,4.10
2023-03-30T20:52:01.215Z,3.43
2023-03-30T20:54:29.110Z,3.10
2023-03-30T20:56:56.448Z,3.30
2023-03-30T20:59:22.670Z,3.37
2023-03-30T21:01:51.455Z,3.53
2023-03-30T21:04:18.755Z,3.47
2023-03-30T21:06:45.518Z,3.60
2023-03-30T21:09:11.642Z,3.87
2023-03-30T21:11:38.529Z,3.53
2023-03-30T21:14:10.739Z,3.53
2023-03-30T21:16:37.739Z,3.67
2023-03-30T21:19:05.836Z,3.77
2023-03-30T21:21:34.136Z,3.20
2023-03-30T21:24:01.049Z,3.37
2023-03-30T21:26:28.535Z,3.23
2023-03-30T21:28:55.288Z,3.50
2023-03-30T21:31:23.962Z,3.30
2023-03-30T21:33:50.123Z,3.60
2023-03-30T21:36:16.641Z,3.97
2023-03-30T21:38:42.908Z,3.50
2023-03-30T21:41:18.510Z,3.07
2023-03-30T21:43:46.732Z,3.43
2023-03-30T21:46:19.842Z,3.50
2023-03-30T21:48:47.370Z,3.37
2023-03-30T21:51:16.925Z,2.93
2023-03-30T21:53:47.771Z,2.97
2023-03-30T21:56:15.000Z,3.10
2023-03-30T21:58:41.170Z,3.10
2023-03-30T22:01:12.444Z,2.90
2023-03-30T22:03:41.046Z,2.53
2023-03-30T22:06:09.688Z,3.10
2023-03-30T22:08:35.841Z,3.27
2023-03-30T22:11:03.899Z,3.20
2023-03-30T22:13:30.584Z,3.30
2023-03-30T22:16:07.730Z,3.17
2023-03-30T22:18:34.165Z,3.63
2023-03-30T22:21:02.790Z,3.50
2023-03-30T22:23:29.613Z,2.27
2023-03-30T22:25:56.551Z,3.10
2023-03-30T22:28:23.453Z,2.90
2023-03-30T22:30:50.564Z,3.47
2023-03-30T22:33:18.496Z,2.77
2023-03-30T22:35:46.085Z,3.40
2023-03-30T22:38:14.009Z,3.30
2023-03-30T22:40:43.380Z,3.00
2023-03-30T22:43:12.125Z,3.00
2023-03-30T22:45:39.158Z,2.63
2023-03-30T22:48:05.639Z,2.97
2023-03-30T22:50:33.133Z,2.83
2023-03-30T22:52:59.396Z,3.07
2023-03-30T22:55:25.841Z,3.33
2023-03-30T22:57:53.135Z,3.27
2023-03-30T23:00:20.438Z,3.37
2023-03-30T23:02:48.230Z,3.80
2023-03-30T23:05:16.258Z,3.23
2023-03-30T23:07:47.537Z,3.47
2023-03-30T23:10:17.435Z,3.23
2023-03-30T23:12:44.382Z,3.03
2023-03-30T23:15:11.656Z,3.53
2023-03-30T23:17:38.896Z,3.30
2023-03-30T23:20:09.766Z,4.00
2023-03-30T23:22:37.600Z,3.60
2023-03-30T23:25:05.516Z,3.63
2023-03-30T23:27:31.695Z,3.37
2023-03-30T23:29:58.014Z,3.20
2023-03-30T23:32:24.141Z,3.50
2023-03-30T23:34:50.711Z,3.30
2023-03-30T23:37:16.845Z,3.27
2023-03-30T23:39:43.454Z,3.20
2023-03-30T23:42:10.492Z,3.17
2023-03-30T23:44:36.874Z,3.30
2023-03-30T23:47:03.014Z,2.70
2023-03-30T23:49:29.350Z,3.50
2023-03-30T23:51:55.528Z,2.90
2023-03-30T23:54:22.556Z,2.63
2023-03-30T23:56:56.902Z,2.90
2023-03-30T23:59:24.281Z,3.13
